Terminal Aerodrome Forecast
Issued by NWS Paducah, KY

Home | Current Version | Previous Version | Text Only | Print | Product List | Glossary On
Versions: 1 2 3 4 5 6 7 8 9 10 11 12 13 14
000
FTUS43 KPAH 230500
TAFPAH
TAF
KPAH 230535Z 2306/2406 17006KT P6SM FEW035 SCT080
     FM231200 13008KT P6SM -SHRA OVC015
     FM231700 15012KT 3SM RA BR OVC005
      TEMPO 2318/2320 2SM SHRA BR OVC003
     FM240000 19013KT P6SM OVC010=

USA.gov is the U.S. government's official web portal to all federal, state and local government web resources and services.